Time;durP1;ratioP1;P1;durP2;ratioP2;P2;SDS_P1;SDS_P2;PMS_P1;PMS_P2;Temp;Humidity;BMP_temperature;BMP_pressure;BME280_temperature;BME280_humidity;BME280_pressure;Samples;Min_cycle;Max_cycle;Signal;HPM_P1;HPM_P2
2023/05/24 00:02:28;;;;;;;19.65;14.40;;;11.20;99.90;;;;;;20915354;28;20074;-57
2023/05/24 00:12:29;;;;;;;23.25;14.77;;;11.20;99.90;;;;;;20916538;28;20139;-57
2023/05/24 00:22:31;;;;;;;22.67;15.32;;;11.10;99.90;;;;;;20918994;28;20099;-49
2023/05/24 00:32:33;;;;;;;16.92;12.50;;;11.30;99.90;;;;;;20913595;28;20037;-47
2023/05/24 00:42:34;;;;;;;14.82;10.23;;;11.30;99.90;;;;;;20912868;28;20132;-57
2023/05/24 00:52:36;;;;;;;16.02;11.48;;;11.10;99.90;;;;;;20909916;28;20090;-49
2023/05/24 01:02:38;;;;;;;20.15;14.27;;;11.10;99.90;;;;;;20914757;28;20490;-48
2023/05/24 01:12:48;;;;;;;21.92;15.18;;;11.10;99.90;;;;;;20916445;28;20083;-57
2023/05/24 01:23:05;;;;;;;21.73;14.77;;;11.10;99.90;;;;;;20910878;28;20029;-57
2023/05/24 01:33:06;;;;;;;20.02;14.13;;;11.00;99.90;;;;;;20905859;28;20057;-54
2023/05/24 01:43:14;;;;;;;23.65;16.52;;;10.90;99.90;;;;;;20907783;28;20041;-47
2023/05/24 01:53:19;;;;;;;24.67;17.67;;;10.80;99.90;;;;;;20900447;28;20090;-56
2023/05/24 02:03:20;;;;;;;20.98;15.77;;;10.60;99.90;;;;;;20905390;28;20037;-56
2023/05/24 02:13:22;;;;;;;26.88;18.17;;;10.70;99.90;;;;;;20905636;28;20553;-56
2023/05/24 02:23:24;;;;;;;31.13;19.17;;;10.50;99.90;;;;;;20908560;28;20112;-55
2023/05/24 02:33:25;;;;;;;31.52;20.88;;;10.50;99.90;;;;;;20907128;28;20056;-56
2023/05/24 02:43:26;;;;;;;30.90;21.70;;;10.50;99.90;;;;;;20923687;28;20067;-49
2023/05/24 02:53:31;;;;;;;27.75;20.70;;;10.60;99.90;;;;;;20926365;28;20085;-57
2023/05/24 03:03:33;;;;;;;30.13;21.20;;;10.70;99.90;;;;;;20920118;28;20033;-55
2023/05/24 03:13:35;;;;;;;26.45;18.60;;;10.70;99.90;;;;;;20916236;28;20044;-56
2023/05/24 03:23:37;;;;;;;37.42;21.17;;;10.70;99.90;;;;;;20904568;28;20041;-49
2023/05/24 03:33:38;;;;;;;35.25;23.52;;;11.70;99.90;;;;;;20917466;28;20572;-47
2023/05/24 03:43:40;;;;;;;34.60;23.40;;;11.80;99.90;;;;;;20918166;28;20029;-48
2023/05/24 03:53:47;;;;;;;32.80;23.83;;;11.60;99.90;;;;;;20922753;28;20098;-57
2023/05/24 04:03:51;;;;;;;35.63;24.73;;;11.50;99.90;;;;;;20920877;28;20040;-50
2023/05/24 04:13:56;;;;;;;38.83;25.17;;;11.50;99.90;;;;;;20922050;28;20025;-47
2023/05/24 04:24:00;;;;;;;37.33;26.10;;;11.40;99.90;;;;;;20922899;28;20405;-49
2023/05/24 04:34:03;;;;;;;36.40;24.27;;;11.10;99.90;;;;;;20912776;28;20079;-46
2023/05/24 04:44:06;;;;;;;36.67;25.17;;;11.00;99.90;;;;;;20908898;28;20041;-48
2023/05/24 04:54:07;;;;;;;37.60;24.67;;;11.10;99.90;;;;;;20905056;28;20182;-50
2023/05/24 05:04:09;;;;;;;37.28;25.65;;;11.20;99.90;;;;;;20909332;28;20086;-48
2023/05/24 05:14:11;;;;;;;33.95;23.30;;;11.40;99.90;;;;;;20911668;28;20470;-50
2023/05/24 05:24:15;;;;;;;31.95;21.98;;;11.70;99.90;;;;;;20905487;28;20029;-52
2023/05/24 05:34:16;;;;;;;27.15;19.77;;;12.10;99.90;;;;;;20910313;28;20037;-49
2023/05/24 05:44:18;;;;;;;21.75;15.82;;;12.50;99.90;;;;;;20910648;28;20477;-49
2023/05/24 05:54:21;;;;;;;16.02;12.30;;;13.00;99.90;;;;;;20909789;28;20085;-48
2023/05/24 06:04:22;;;;;;;15.70;13.07;;;13.50;99.90;;;;;;20901033;28;20029;-51
2023/05/24 06:14:24;;;;;;;14.00;9.95;;;14.20;99.90;;;;;;20922354;28;20116;-58
2023/05/24 06:24:27;;;;;;;11.65;8.60;;;16.30;99.90;;;;;;20924530;28;20040;-53
2023/05/24 06:34:28;;;;;;;10.98;7.68;;;19.90;99.90;;;;;;20917227;28;20406;-52
2023/05/24 06:44:33;;;;;;;8.57;7.32;;;22.50;99.90;;;;;;20924511;28;20037;-58
2023/05/24 06:54:35;;;;;;;8.40;7.55;;;24.30;97.90;;;;;;20910748;28;20477;-59
2023/05/24 07:04:39;;;;;;;10.32;9.32;;;25.10;94.80;;;;;;20921132;28;20039;-51
2023/05/24 07:14:41;;;;;;;10.55;9.23;;;25.30;92.60;;;;;;20932425;28;20522;-49
2023/05/24 07:24:43;;;;;;;11.55;9.77;;;25.30;92.60;;;;;;20921637;28;20036;-54
2023/05/24 07:34:44;;;;;;;11.52;10.13;;;25.30;93.00;;;;;;20906295;28;20041;-50
2023/05/24 07:44:46;;;;;;;11.02;8.15;;;25.50;93.20;;;;;;20914991;28;20105;-58
2023/05/24 07:54:47;;;;;;;9.48;8.48;;;25.70;92.40;;;;;;20913442;28;20044;-59
2023/05/24 08:04:49;;;;;;;9.88;8.68;;;25.90;91.40;;;;;;20914194;28;20041;-59
2023/05/24 08:14:51;;;;;;;12.05;8.95;;;26.80;93.40;;;;;;20916442;28;20096;-58
2023/05/24 08:24:52;;;;;;;12.40;9.60;;;26.80;92.20;;;;;;20916359;28;20021;-49
2023/05/24 08:34:55;;;;;;;12.68;11.48;;;27.10;92.30;;;;;;20910079;28;20036;-48
2023/05/24 08:45:09;;;;;;;14.35;10.55;;;27.00;91.50;;;;;;20914221;28;20036;-59
2023/05/24 08:55:11;;;;;;;10.65;9.55;;;27.00;92.50;;;;;;20914295;28;20486;-59
2023/05/24 09:05:16;;;;;;;12.30;10.15;;;27.30;92.50;;;;;;20905750;28;20430;-51
2023/05/24 09:15:18;;;;;;;11.77;9.60;;;27.70;92.10;;;;;;20926483;28;20036;-58
2023/05/24 09:25:20;;;;;;;11.95;10.48;;;27.40;91.80;;;;;;20909579;28;20033;-59
2023/05/24 09:35:22;;;;;;;13.43;12.05;;;27.60;92.60;;;;;;20903229;28;20049;-58
2023/05/24 09:45:23;;;;;;;15.65;13.13;;;27.20;93.20;;;;;;20905741;28;20037;-58
2023/05/24 09:55:26;;;;;;;16.58;14.98;;;26.70;94.20;;;;;;20910788;28;20470;-58
2023/05/24 10:05:29;;;;;;;20.83;17.15;;;26.50;93.80;;;;;;20904255;28;20033;-57
2023/05/24 10:15:31;;;;;;;21.17;18.45;;;26.90;92.80;;;;;;20904961;28;20044;-58
2023/05/24 10:25:34;;;;;;;27.85;21.60;;;26.20;94.40;;;;;;20904683;28;20086;-58
2023/05/24 10:35:37;;;;;;;22.63;20.13;;;25.70;93.80;;;;;;20907047;28;20415;-58
2023/05/24 10:45:40;;;;;;;23.25;20.73;;;24.70;95.60;;;;;;20900136;28;20433;-50
2023/05/24 10:55:59;;;;;;;16.58;14.88;;;23.80;96.90;;;;;;20902872;28;20090;-58
2023/05/24 11:06:01;;;;;;;14.70;12.07;;;23.40;97.70;;;;;;20921499;28;20033;-52
2023/05/24 11:16:04;;;;;;;16.52;11.55;;;23.20;96.80;;;;;;20913459;28;20029;-58
2023/05/24 11:26:06;;;;;;;16.48;14.65;;;22.10;96.90;;;;;;20912152;28;20025;-58
2023/05/24 11:36:08;;;;;;;15.30;13.70;;;20.10;99.90;;;;;;20917932;28;20608;-58
2023/05/24 11:46:10;;;;;;;18.75;13.20;;;19.30;99.90;;;;;;20922755;28;20036;-58
2023/05/24 11:56:11;;;;;;;18.40;15.52;;;18.90;99.90;;;;;;20916760;28;20390;-59
2023/05/24 12:06:13;;;;;;;21.65;16.42;;;18.40;99.90;;;;;;20913385;28;20040;-59
2023/05/24 12:16:15;;;;;;;18.52;16.48;;;17.00;99.90;;;;;;20919933;28;20036;-58
2023/05/24 12:26:21;;;;;;;21.88;17.27;;;16.40;99.90;;;;;;20912229;28;20040;-59
2023/05/24 12:36:22;;;;;;;17.88;14.57;;;17.20;99.90;;;;;;20910091;28;20079;-58
2023/05/24 12:46:24;;;;;;;18.25;15.90;;;18.20;99.90;;;;;;20922192;28;20025;-58
2023/05/24 12:56:26;;;;;;;16.52;12.90;;;19.00;99.90;;;;;;20917714;28;20037;-58
2023/05/24 13:06:27;;;;;;;13.30;11.93;;;20.80;99.90;;;;;;20905861;28;20040;-46
2023/05/24 13:16:29;;;;;;;14.73;12.23;;;22.60;99.90;;;;;;20912058;28;20043;-56
2023/05/24 13:26:35;;;;;;;14.65;13.15;;;22.60;99.90;;;;;;20903179;28;20024;-58
2023/05/24 13:36:37;;;;;;;15.82;13.95;;;20.60;99.90;;;;;;20910327;28;20045;-58
2023/05/24 13:46:39;;;;;;;16.42;13.80;;;19.10;99.90;;;;;;20911210;28;20036;-58
2023/05/24 13:56:43;;;;;;;19.48;15.75;;;18.30;99.90;;;;;;20906495;28;20099;-58
2023/05/24 14:06:45;;;;;;;18.67;15.80;;;17.40;99.90;;;;;;20907391;28;20041;-58
2023/05/24 14:16:50;;;;;;;16.42;13.45;;;16.70;99.90;;;;;;20906987;28;20029;-58
2023/05/24 14:26:51;;;;;;;16.80;14.20;;;16.70;99.90;;;;;;20909812;28;20033;-58
2023/05/24 14:36:53;;;;;;;19.52;16.10;;;16.70;99.90;;;;;;20919704;28;20052;-58
2023/05/24 14:46:55;;;;;;;15.43;13.40;;;17.10;99.90;;;;;;20923266;28;20052;-57
2023/05/24 14:56:56;;;;;;;16.52;12.00;;;17.00;99.90;;;;;;20918715;28;20028;-57
2023/05/24 15:06:58;;;;;;;15.60;12.45;;;15.90;99.90;;;;;;20915167;28;20386;-58
2023/05/24 15:16:59;;;;;;;22.17;16.00;;;15.60;99.90;;;;;;20920883;28;20037;-46
2023/05/24 15:27:01;;;;;;;31.13;20.38;;;15.20;99.90;;;;;;20917589;28;20083;-45
2023/05/24 15:37:03;;;;;;;23.80;15.88;;;13.40;99.90;;;;;;20914996;28;20045;-45
2023/05/24 15:47:05;;;;;;;15.55;11.90;;;12.50;99.90;;;;;;20914205;28;20033;-60
2023/05/24 15:57:06;;;;;;;24.20;15.20;;;11.90;99.90;;;;;;20918261;28;20029;-60
2023/05/24 16:07:08;;;;;;;19.40;14.05;;;11.50;99.90;;;;;;20909622;28;20044;-48
2023/05/24 16:17:10;;;;;;;19.73;13.90;;;11.10;99.90;;;;;;20911541;28;20028;-60
2023/05/24 16:27:11;;;;;;;19.00;8.10;;;11.00;99.90;;;;;;20912299;28;20040;-57
2023/05/24 16:37:13;;;;;;;38.75;11.77;;;10.80;99.90;;;;;;20907698;28;20040;-46
2023/05/24 16:47:15;;;;;;;19.13;12.25;;;10.00;99.90;;;;;;20913676;28;20048;-58
2023/05/24 16:57:16;;;;;;;22.58;13.70;;;9.30;99.90;;;;;;20913734;28;20025;-57
2023/05/24 17:07:18;;;;;;;21.48;14.27;;;9.30;99.90;;;;;;20910996;28;20062;-58
2023/05/24 17:17:19;;;;;;;10.77;7.40;;;9.50;99.90;;;;;;20911624;28;20029;-59
2023/05/24 17:27:21;;;;;;;15.35;9.10;;;9.80;99.90;;;;;;20903141;28;20033;-58
2023/05/24 17:37:22;;;;;;;17.73;10.30;;;9.90;99.90;;;;;;20910294;28;20049;-49
2023/05/24 17:47:24;;;;;;;16.38;11.38;;;9.80;99.90;;;;;;20909244;28;20383;-52
2023/05/24 17:57:26;;;;;;;17.40;11.88;;;9.90;99.90;;;;;;20909742;28;20087;-51
2023/05/24 18:07:28;;;;;;;15.70;9.73;;;9.90;99.90;;;;;;20916122;28;20037;-46
2023/05/24 18:17:30;;;;;;;14.73;10.50;;;10.10;99.90;;;;;;20929582;28;20036;-58
2023/05/24 18:27:32;;;;;;;22.10;16.10;;;10.30;99.90;;;;;;20920794;28;20028;-58
2023/05/24 18:37:33;;;;;;;27.40;16.98;;;10.20;99.90;;;;;;20915824;28;20440;-49
2023/05/24 18:47:35;;;;;;;18.63;13.82;;;10.30;99.90;;;;;;20911200;28;20106;-58
2023/05/24 18:57:38;;;;;;;11.68;8.93;;;10.30;99.90;;;;;;20914704;28;20083;-58
2023/05/24 19:07:40;;;;;;;16.25;11.50;;;10.10;99.90;;;;;;20918060;28;20037;-46
2023/05/24 19:17:42;;;;;;;18.25;12.38;;;9.90;99.90;;;;;;20916176;28;20544;-58
2023/05/24 19:27:44;;;;;;;11.35;9.13;;;9.90;99.90;;;;;;20917515;28;20516;-47
2023/05/24 19:37:46;;;;;;;13.50;9.88;;;9.80;99.90;;;;;;20919828;28;20036;-50
2023/05/24 19:47:47;;;;;;;8.63;7.30;;;9.80;99.90;;;;;;20918330;28;20033;-47
2023/05/24 19:57:49;;;;;;;7.85;6.43;;;9.60;99.90;;;;;;20918182;28;20029;-46
2023/05/24 20:07:51;;;;;;;7.05;5.55;;;9.50;99.90;;;;;;20913088;28;20324;-49
2023/05/24 20:17:53;;;;;;;6.63;5.30;;;9.40;99.90;;;;;;20923716;28;20032;-50
2023/05/24 20:27:54;;;;;;;9.77;6.22;;;9.30;99.90;;;;;;20910784;28;20091;-46
2023/05/24 20:37:56;;;;;;;9.27;6.72;;;9.30;99.90;;;;;;20918446;28;20045;-47
2023/05/24 20:47:58;;;;;;;11.45;7.80;;;9.20;99.90;;;;;;20905938;28;20024;-58
2023/05/24 20:58:00;;;;;;;11.32;7.50;;;9.20;99.90;;;;;;20913868;28;20037;-56
2023/05/24 21:08:04;;;;;;;13.13;9.70;;;9.30;99.90;;;;;;20908864;28;20421;-59
2023/05/24 21:18:06;;;;;;;20.92;11.82;;;9.30;99.90;;;;;;20912519;28;20067;-50
2023/05/24 21:28:09;;;;;;;28.13;16.23;;;9.30;99.90;;;;;;20912037;28;20154;-48
2023/05/24 21:38:10;;;;;;;26.42;18.70;;;9.40;99.90;;;;;;20910855;28;20102;-59
2023/05/24 21:48:12;;;;;;;18.98;14.07;;;9.60;99.90;;;;;;20906850;28;20037;-59
2023/05/24 21:58:13;;;;;;;13.05;10.25;;;9.80;99.90;;;;;;20906906;28;20394;-45
2023/05/24 22:08:15;;;;;;;13.20;9.38;;;9.60;99.90;;;;;;20909717;28;20082;-58
2023/05/24 22:18:17;;;;;;;11.13;9.43;;;9.50;99.90;;;;;;20917962;28;20029;-59
2023/05/24 22:28:19;;;;;;;12.10;9.27;;;9.50;99.90;;;;;;20909605;28;20025;-58
2023/05/24 22:38:20;;;;;;;12.80;8.50;;;9.50;99.90;;;;;;20908750;28;20049;-58
2023/05/24 22:48:25;;;;;;;10.00;7.13;;;9.50;99.90;;;;;;20902686;28;20036;-47
2023/05/24 22:58:26;;;;;;;10.40;6.80;;;9.60;99.90;;;;;;20916037;28;20056;-51
2023/05/24 23:08:30;;;;;;;9.60;7.82;;;9.60;99.90;;;;;;20915185;28;20043;-58
2023/05/24 23:18:32;;;;;;;7.00;5.85;;;9.60;99.90;;;;;;20922021;28;20032;-57
2023/05/24 23:28:34;;;;;;;7.90;6.72;;;9.80;99.90;;;;;;20918853;28;20032;-46
2023/05/24 23:38:36;;;;;;;10.15;7.38;;;9.70;99.90;;;;;;20912863;28;20118;-47
2023/05/24 23:48:37;;;;;;;9.95;8.50;;;9.70;99.90;;;;;;20915221;28;20036;-46
2023/05/24 23:58:40;;;;;;;14.65;8.40;;;9.70;99.90;;;;;;20907508;28;20033;-47
